Time;durP1;ratioP1;P1;durP2;ratioP2;P2;SDS_P1;SDS_P2;PMS_P1;PMS_P2;Temp;Humidity;BMP_temperature;BMP_pressure;BME280_temperature;BME280_humidity;BME280_pressure;Samples;Min_cycle;Max_cycle;Signal;HPM_P1;HPM_P2
2021/11/29 00:00:21;;;;;;;5.40;1.20;;;2.50;99.90;;;;;;4993560;28;20046;-50
2021/11/29 00:02:51;;;;;;;9.48;1.20;;;2.50;99.90;;;;;;4994603;28;20448;-49
2021/11/29 00:05:20;;;;;;;6.05;0.90;;;2.60;99.90;;;;;;4994486;28;20046;-49
2021/11/29 00:07:45;;;;;;;6.40;0.80;;;2.60;99.90;;;;;;4994569;28;20042;-48
2021/11/29 00:10:11;;;;;;;6.45;1.00;;;2.60;99.90;;;;;;4994416;28;20042;-51
2021/11/29 00:12:37;;;;;;;3.22;0.70;;;2.50;99.90;;;;;;4994412;28;20046;-49
2021/11/29 00:15:05;;;;;;;8.85;1.13;;;2.60;99.90;;;;;;4994189;28;20042;-51
2021/11/29 00:17:31;;;;;;;6.77;1.10;;;2.60;99.90;;;;;;4994366;28;20043;-52
2021/11/29 00:19:57;;;;;;;4.75;0.73;;;2.60;99.90;;;;;;4994406;28;20034;-51
2021/11/29 00:22:22;;;;;;;6.60;1.17;;;2.60;99.90;;;;;;4994498;28;20038;-50
2021/11/29 00:24:48;;;;;;;5.97;1.02;;;2.50;99.90;;;;;;4994160;28;20054;-51
2021/11/29 00:27:14;;;;;;;6.55;0.98;;;2.50;99.90;;;;;;4994086;28;20045;-52
2021/11/29 00:29:42;;;;;;;4.30;0.85;;;2.40;99.90;;;;;;5009466;28;20465;-52
2021/11/29 00:32:09;;;;;;;4.57;0.80;;;2.50;99.90;;;;;;4994061;28;20563;-52
2021/11/29 00:34:34;;;;;;;8.63;1.30;;;2.50;99.90;;;;;;4993701;28;20386;-51
2021/11/29 00:37:00;;;;;;;9.85;1.55;;;2.60;99.90;;;;;;4994119;28;20042;-52
2021/11/29 00:39:26;;;;;;;14.35;1.20;;;2.60;99.90;;;;;;4993778;28;20042;-48
2021/11/29 00:41:51;;;;;;;6.45;1.05;;;2.70;99.90;;;;;;4993632;28;20046;-50
2021/11/29 00:44:17;;;;;;;7.05;1.25;;;2.80;99.90;;;;;;4993591;28;20038;-52
2021/11/29 00:46:44;;;;;;;6.18;0.98;;;2.80;99.90;;;;;;4993623;28;20082;-50
2021/11/29 00:49:10;;;;;;;5.93;1.00;;;2.80;99.90;;;;;;4993891;28;20038;-51
2021/11/29 00:51:35;;;;;;;11.18;1.10;;;2.90;99.90;;;;;;4993708;28;20038;-49
2021/11/29 00:54:01;;;;;;;5.93;1.05;;;3.10;99.90;;;;;;4993730;28;20042;-50
2021/11/29 00:56:27;;;;;;;10.10;1.30;;;3.20;99.90;;;;;;4993586;28;20153;-50
2021/11/29 00:58:53;;;;;;;8.90;1.35;;;3.30;99.90;;;;;;4994093;28;20038;-50
2021/11/29 01:01:19;;;;;;;7.65;1.05;;;3.30;99.90;;;;;;4993587;28;20069;-52
2021/11/29 01:03:45;;;;;;;7.70;1.40;;;3.40;99.90;;;;;;4993226;28;20043;-52
2021/11/29 01:06:10;;;;;;;5.78;1.00;;;3.40;99.90;;;;;;4993149;28;20050;-52
2021/11/29 01:08:36;;;;;;;5.45;0.80;;;3.40;99.90;;;;;;4993457;28;20178;-52
2021/11/29 01:11:04;;;;;;;9.27;0.85;;;3.40;99.90;;;;;;4993269;28;20043;-51
2021/11/29 01:13:30;;;;;;;3.63;0.80;;;3.40;99.90;;;;;;4993575;28;20048;-49
2021/11/29 01:15:55;;;;;;;5.47;0.77;;;3.50;99.90;;;;;;4993232;28;20034;-52
2021/11/29 01:18:21;;;;;;;7.00;1.77;;;3.40;99.90;;;;;;4993399;28;20088;-52
2021/11/29 01:20:48;;;;;;;6.18;0.68;;;3.40;99.90;;;;;;4993346;28;20034;-52
2021/11/29 01:23:17;;;;;;;9.38;0.98;;;3.40;99.90;;;;;;4993275;28;20073;-52
2021/11/29 01:25:43;;;;;;;4.25;0.63;;;3.50;99.90;;;;;;4993273;28;20042;-52
2021/11/29 01:28:09;;;;;;;6.10;0.43;;;3.40;99.90;;;;;;4993064;28;20042;-52
2021/11/29 01:30:35;;;;;;;2.75;0.60;;;3.40;99.90;;;;;;4993070;28;20407;-51
2021/11/29 01:33:01;;;;;;;2.65;0.47;;;3.50;99.90;;;;;;4992963;28;20034;-51
2021/11/29 01:35:27;;;;;;;1.45;0.50;;;3.40;99.90;;;;;;4993132;28;20053;-52
2021/11/29 01:37:53;;;;;;;1.38;0.40;;;3.40;99.90;;;;;;4992918;28;20121;-51
2021/11/29 01:40:19;;;;;;;1.95;0.73;;;3.30;99.90;;;;;;5008062;28;20165;-51
2021/11/29 01:42:56;;;;;;;3.35;0.40;;;3.20;99.90;;;;;;4993032;28;20195;-53
2021/11/29 01:45:21;;;;;;;1.42;0.45;;;3.10;99.90;;;;;;4993034;28;20042;-52
2021/11/29 01:47:47;;;;;;;3.22;0.52;;;3.10;99.90;;;;;;4992992;28;20065;-53
2021/11/29 01:50:12;;;;;;;1.13;0.65;;;3.20;99.90;;;;;;4992855;28;20038;-51
2021/11/29 01:52:38;;;;;;;2.17;0.75;;;3.10;99.90;;;;;;4992580;28;20445;-49
2021/11/29 01:55:04;;;;;;;1.70;0.70;;;3.10;99.90;;;;;;4992633;28;20069;-52
2021/11/29 01:57:30;;;;;;;1.67;0.60;;;3.10;99.90;;;;;;4992902;28;20129;-51
2021/11/29 01:59:56;;;;;;;3.10;0.43;;;3.10;99.90;;;;;;4996016;28;20117;-53
2021/11/29 02:02:22;;;;;;;4.78;0.65;;;3.20;99.90;;;;;;4996761;28;20125;-52
2021/11/29 02:04:48;;;;;;;3.63;0.50;;;3.10;99.90;;;;;;4996618;28;20532;-51
2021/11/29 02:07:13;;;;;;;2.65;0.40;;;3.10;99.90;;;;;;4996516;28;20136;-53
2021/11/29 02:09:39;;;;;;;3.25;0.40;;;3.10;99.90;;;;;;4996655;28;20038;-53
2021/11/29 02:12:05;;;;;;;2.95;0.55;;;3.10;99.90;;;;;;4996776;28;20109;-52
2021/11/29 02:14:32;;;;;;;3.38;0.45;;;3.10;99.90;;;;;;4996827;28;20452;-53
2021/11/29 02:16:58;;;;;;;1.63;0.57;;;3.10;99.90;;;;;;4995450;28;20046;-52
2021/11/29 02:19:24;;;;;;;2.55;0.85;;;3.10;99.90;;;;;;4996769;28;20137;-53
2021/11/29 02:21:49;;;;;;;1.88;0.30;;;3.10;99.90;;;;;;4996398;28;20374;-53
2021/11/29 02:24:17;;;;;;;4.38;0.63;;;3.10;99.90;;;;;;4996697;28;20045;-52
2021/11/29 02:26:43;;;;;;;2.72;0.60;;;3.10;99.90;;;;;;4996533;28;20078;-52
2021/11/29 02:29:12;;;;;;;3.75;0.68;;;3.10;99.90;;;;;;4996138;28;20082;-53
2021/11/29 02:31:40;;;;;;;;;;;3.10;99.90;;;;;;4996511;28;20046;-51
2021/11/29 02:34:24;;;;;;;1.27;0.55;;;3.10;99.90;;;;;;4996280;28;20029;-53
2021/11/29 02:36:52;;;;;;;0.77;0.45;;;3.10;99.90;;;;;;5011548;28;20054;-53
2021/11/29 02:39:19;;;;;;;4.53;0.70;;;3.10;99.90;;;;;;4996449;28;20125;-53
2021/11/29 02:41:46;;;;;;;2.13;0.50;;;3.10;99.90;;;;;;4996222;28;20046;-53
2021/11/29 02:44:12;;;;;;;4.80;0.60;;;3.10;99.90;;;;;;4995768;28;20042;-53
2021/11/29 02:46:38;;;;;;;1.73;0.55;;;3.10;99.90;;;;;;4995994;28;20041;-51
2021/11/29 02:49:06;;;;;;;1.05;0.40;;;3.10;99.90;;;;;;4996111;28;20444;-52
2021/11/29 02:51:33;;;;;;;3.45;0.50;;;3.10;99.90;;;;;;4994591;28;20042;-53
2021/11/29 02:54:05;;;;;;;1.05;0.43;;;3.10;99.90;;;;;;4996231;28;20041;-53
2021/11/29 02:56:31;;;;;;;0.85;0.38;;;3.10;99.90;;;;;;4995931;28;20038;-50
2021/11/29 02:58:57;;;;;;;2.40;0.50;;;3.10;99.90;;;;;;4996052;28;20073;-51
2021/11/29 03:01:23;;;;;;;1.70;0.50;;;3.10;99.90;;;;;;4996114;28;20081;-50
2021/11/29 03:03:51;;;;;;;3.40;0.47;;;3.10;99.90;;;;;;4995678;28;20053;-50
2021/11/29 03:06:18;;;;;;;5.22;0.90;;;3.10;99.90;;;;;;4995786;28;20141;-53
2021/11/29 03:08:45;;;;;;;4.53;0.60;;;3.10;99.90;;;;;;4995780;28;20038;-53
2021/11/29 03:11:11;;;;;;;6.63;0.95;;;3.10;99.90;;;;;;4995701;28;20081;-52
2021/11/29 03:13:37;;;;;;;1.80;0.52;;;3.10;99.90;;;;;;4995491;28;20472;-51
2021/11/29 03:16:03;;;;;;;4.15;0.77;;;3.10;99.90;;;;;;4995290;28;20039;-53
2021/11/29 03:18:36;;;;;;;4.80;0.77;;;3.10;99.90;;;;;;4995631;28;20042;-52
2021/11/29 03:21:04;;;;;;;1.17;0.38;;;3.10;99.90;;;;;;4995530;28;20093;-53
2021/11/29 03:23:30;;;;;;;3.88;1.05;;;3.10;99.90;;;;;;4995292;28;20476;-53
2021/11/29 03:25:57;;;;;;;5.07;1.02;;;3.10;99.90;;;;;;4995504;28;20126;-52
2021/11/29 03:28:22;;;;;;;2.05;0.60;;;3.20;99.90;;;;;;4995240;28;20049;-53
2021/11/29 03:30:49;;;;;;;2.80;0.63;;;3.30;99.90;;;;;;4995136;28;20074;-51
2021/11/29 03:33:15;;;;;;;7.75;0.88;;;3.30;99.90;;;;;;4995241;28;20120;-51
2021/11/29 03:35:41;;;;;;;5.55;0.80;;;3.30;99.90;;;;;;4995575;28;20093;-52
2021/11/29 03:38:08;;;;;;;4.95;0.80;;;3.30;99.90;;;;;;4995147;28;20042;-53
2021/11/29 03:40:37;;;;;;;2.47;0.43;;;3.40;99.90;;;;;;4995092;28;20082;-52
2021/11/29 03:43:03;;;;;;;2.08;0.55;;;3.40;99.90;;;;;;4995216;28;20049;-51
2021/11/29 03:45:29;;;;;;;4.70;0.98;;;3.60;99.90;;;;;;4994974;28;20469;-53
2021/11/29 03:47:55;;;;;;;2.92;0.90;;;3.60;99.90;;;;;;4995066;28;20041;-51
2021/11/29 03:50:20;;;;;;;4.30;1.35;;;3.60;99.90;;;;;;4994875;28;20038;-52
2021/11/29 03:52:46;;;;;;;3.22;1.00;;;3.60;99.90;;;;;;4994723;28;20031;-52
2021/11/29 03:55:11;;;;;;;1.73;0.63;;;3.70;99.90;;;;;;4994717;28;20420;-52
2021/11/29 03:57:37;;;;;;;6.45;0.80;;;3.70;99.90;;;;;;4994688;28;20050;-52
2021/11/29 04:00:04;;;;;;;1.27;0.50;;;3.70;99.90;;;;;;4994549;28;20050;-52
2021/11/29 04:02:30;;;;;;;1.95;0.60;;;3.70;99.90;;;;;;4994604;28;20521;-51
2021/11/29 04:04:55;;;;;;;3.58;0.55;;;3.70;99.90;;;;;;4994630;28;20034;-53
2021/11/29 04:07:21;;;;;;;3.63;0.52;;;3.70;99.90;;;;;;4994632;28;20073;-51
2021/11/29 04:09:47;;;;;;;2.58;0.82;;;3.80;99.90;;;;;;4994400;28;20080;-51
2021/11/29 04:12:13;;;;;;;2.17;0.65;;;3.80;99.90;;;;;;4994483;28;20084;-51
2021/11/29 04:14:38;;;;;;;2.97;0.60;;;3.80;99.90;;;;;;4994390;28;20046;-52
2021/11/29 04:17:04;;;;;;;3.40;0.77;;;3.80;99.90;;;;;;4994609;28;20053;-50
2021/11/29 04:19:30;;;;;;;2.78;0.73;;;3.80;99.90;;;;;;4994269;28;20050;-51
2021/11/29 04:21:55;;;;;;;2.75;0.60;;;3.90;99.90;;;;;;4993889;28;20038;-53
2021/11/29 04:24:23;;;;;;;1.30;0.65;;;3.90;99.90;;;;;;4994427;28;20042;-51
2021/11/29 04:26:53;;;;;;;1.50;0.60;;;3.90;99.90;;;;;;4994155;28;20046;-51
2021/11/29 04:29:24;;;;;;;1.45;0.70;;;3.90;99.90;;;;;;4994251;28;20038;-52
2021/11/29 04:31:50;;;;;;;1.90;0.70;;;4.00;99.90;;;;;;4994295;28;20038;-50
2021/11/29 04:34:16;;;;;;;2.00;0.65;;;4.00;99.90;;;;;;4993823;28;20062;-50
2021/11/29 04:36:42;;;;;;;6.28;0.80;;;4.00;99.90;;;;;;4993825;28;20539;-51
2021/11/29 04:39:08;;;;;;;2.08;0.60;;;4.00;99.90;;;;;;4994026;28;20042;-51
2021/11/29 04:41:34;;;;;;;1.75;0.70;;;4.00;99.90;;;;;;4993846;28;20046;-51
2021/11/29 04:43:59;;;;;;;2.38;0.60;;;4.00;99.90;;;;;;4994031;28;20038;-52
2021/11/29 04:46:25;;;;;;;2.15;0.98;;;4.10;99.90;;;;;;4992568;28;20046;-50
2021/11/29 04:48:51;;;;;;;6.65;0.77;;;4.00;99.90;;;;;;4993846;28;20154;-53
2021/11/29 04:51:16;;;;;;;2.85;0.60;;;4.00;99.90;;;;;;4993938;28;20042;-50
2021/11/29 04:53:42;;;;;;;5.15;0.73;;;4.00;99.90;;;;;;4993786;28;20042;-52
2021/11/29 04:56:08;;;;;;;1.85;0.55;;;4.00;99.90;;;;;;4993438;28;20034;-53
2021/11/29 04:58:34;;;;;;;1.38;0.60;;;4.00;99.90;;;;;;4992397;28;20125;-52
2021/11/29 05:01:00;;;;;;;3.03;0.80;;;4.00;99.90;;;;;;4993825;28;20046;-51
2021/11/29 05:03:25;;;;;;;1.08;0.60;;;4.00;99.90;;;;;;4993610;28;20476;-51
2021/11/29 05:05:52;;;;;;;1.02;0.50;;;3.90;99.90;;;;;;4993640;28;20064;-52
2021/11/29 05:08:17;;;;;;;1.50;0.70;;;3.90;99.90;;;;;;4993234;28;20073;-52
2021/11/29 05:10:44;;;;;;;2.83;0.90;;;3.90;99.90;;;;;;4993261;28;20070;-51
2021/11/29 05:13:09;;;;;;;4.60;0.70;;;3.90;99.90;;;;;;4993397;28;20065;-51
2021/11/29 05:15:35;;;;;;;0.98;0.70;;;3.90;99.90;;;;;;4993369;28;20460;-51
2021/11/29 05:18:01;;;;;;;5.25;1.15;;;3.80;99.90;;;;;;4993428;28;20077;-52
2021/11/29 05:20:27;;;;;;;5.03;1.25;;;3.80;99.90;;;;;;4993182;28;20077;-52
2021/11/29 05:22:53;;;;;;;2.55;0.80;;;3.70;99.90;;;;;;4993097;28;20042;-52
2021/11/29 05:25:21;;;;;;;2.45;0.90;;;3.70;99.90;;;;;;4993046;28;20046;-50
2021/11/29 05:27:47;;;;;;;3.00;0.70;;;3.70;99.90;;;;;;4993239;28;20085;-53
2021/11/29 05:30:13;;;;;;;3.15;0.80;;;3.60;99.90;;;;;;4993284;28;20085;-51
2021/11/29 05:32:39;;;;;;;5.60;1.70;;;3.60;99.90;;;;;;4992750;28;20080;-51
2021/11/29 05:35:05;;;;;;;1.95;0.80;;;3.60;99.90;;;;;;4992471;28;20050;-53
2021/11/29 05:37:31;;;;;;;3.38;1.00;;;3.50;99.90;;;;;;4993143;28;20062;-53
2021/11/29 05:39:57;;;;;;;2.05;1.10;;;3.40;99.90;;;;;;4993088;28;20035;-52
2021/11/29 05:42:23;;;;;;;1.73;0.80;;;3.30;99.90;;;;;;4993309;28;20073;-53
2021/11/29 05:44:50;;;;;;;1.48;0.75;;;3.20;99.90;;;;;;4993118;28;20042;-52
2021/11/29 05:47:17;;;;;;;1.35;0.90;;;3.10;99.90;;;;;;4993060;28;20049;-52
2021/11/29 05:49:42;;;;;;;3.47;0.90;;;3.00;99.90;;;;;;4992790;28;20038;-52
2021/11/29 05:52:08;;;;;;;3.03;1.30;;;3.00;99.90;;;;;;4992968;28;20034;-52
2021/11/29 05:54:34;;;;;;;2.10;1.05;;;2.90;99.90;;;;;;4991736;28;20058;-53
2021/11/29 05:56:59;;;;;;;2.15;1.20;;;2.90;99.90;;;;;;4992786;28;20046;-52
2021/11/29 05:59:25;;;;;;;1.35;0.98;;;2.80;99.90;;;;;;4992856;28;20038;-53
2021/11/29 06:01:51;;;;;;;1.00;0.80;;;2.80;99.90;;;;;;4992714;28;20444;-52
2021/11/29 06:04:17;;;;;;;2.75;1.00;;;2.80;99.90;;;;;;4992809;28;20064;-53
2021/11/29 06:06:42;;;;;;;0.98;0.73;;;2.70;99.90;;;;;;4992772;28;20396;-50
2021/11/29 06:09:08;;;;;;;2.08;1.08;;;2.80;99.90;;;;;;4992681;28;20085;-52
2021/11/29 06:11:34;;;;;;;2.17;1.00;;;2.70;99.90;;;;;;4992557;28;20112;-51
2021/11/29 06:13:59;;;;;;;1.77;0.95;;;2.60;99.90;;;;;;4992801;28;20070;-53
2021/11/29 06:16:25;;;;;;;1.30;0.93;;;2.60;99.90;;;;;;4992715;28;20039;-52
2021/11/29 06:18:51;;;;;;;3.90;0.93;;;2.50;99.90;;;;;;4992465;28;20358;-52
2021/11/29 06:21:16;;;;;;;1.10;0.95;;;2.50;99.90;;;;;;4992508;28;20045;-53
2021/11/29 06:23:42;;;;;;;3.17;1.00;;;2.40;99.90;;;;;;4992652;28;20049;-53
2021/11/29 06:26:08;;;;;;;1.80;0.98;;;2.30;99.90;;;;;;4992690;28;20050;-52
2021/11/29 06:28:33;;;;;;;2.75;1.00;;;2.30;99.90;;;;;;4992371;28;20050;-52
2021/11/29 06:30:59;;;;;;;2.42;0.82;;;2.20;99.90;;;;;;4992840;28;20038;-52
2021/11/29 06:33:25;;;;;;;2.25;1.00;;;2.20;99.90;;;;;;4992204;28;20061;-53
2021/11/29 06:35:52;;;;;;;2.05;1.02;;;2.30;99.90;;;;;;4992299;28;20042;-52
2021/11/29 06:38:18;;;;;;;1.92;1.00;;;2.40;99.90;;;;;;4992310;28;20054;-52
2021/11/29 06:40:49;;;;;;;2.78;1.20;;;2.30;99.90;;;;;;4992474;28;20125;-53
2021/11/29 06:43:17;;;;;;;1.42;0.90;;;2.20;99.90;;;;;;4992144;28;20050;-51
2021/11/29 06:45:42;;;;;;;1.15;0.93;;;2.20;99.90;;;;;;4994893;28;20042;-51
2021/11/29 06:48:08;;;;;;;2.60;1.20;;;2.20;99.90;;;;;;4995745;28;20042;-52
2021/11/29 06:50:34;;;;;;;3.90;1.45;;;2.20;99.90;;;;;;4995816;28;20034;-51
2021/11/29 06:52:59;;;;;;;1.48;1.02;;;2.20;99.90;;;;;;4996205;28;20051;-50
2021/11/29 06:55:25;;;;;;;1.52;1.25;;;2.20;99.90;;;;;;4995767;28;20038;-50
2021/11/29 06:57:51;;;;;;;1.70;1.38;;;2.10;99.90;;;;;;4995842;28;20045;-53
2021/11/29 07:00:20;;;;;;;2.17;1.27;;;2.10;99.90;;;;;;4995875;28;20493;-53
2021/11/29 07:02:47;;;;;;;3.97;1.20;;;2.10;99.90;;;;;;4995782;28;20077;-51
2021/11/29 07:05:14;;;;;;;5.10;1.30;;;2.10;99.90;;;;;;4995627;28;20050;-52
2021/11/29 07:07:40;;;;;;;2.00;1.50;;;2.10;99.90;;;;;;4995869;28;20043;-52
2021/11/29 07:10:07;;;;;;;2.25;1.65;;;2.00;99.90;;;;;;4995594;28;20530;-52
2021/11/29 07:12:38;;;;;;;1.65;1.33;;;2.00;99.90;;;;;;4995623;28;20038;-51
2021/11/29 07:15:05;;;;;;;2.55;1.33;;;1.80;99.90;;;;;;4995571;28;20084;-53
2021/11/29 07:17:32;;;;;;;5.32;1.48;;;1.80;99.90;;;;;;5010939;28;20061;-53
2021/11/29 07:19:57;;;;;;;2.40;1.63;;;1.80;99.90;;;;;;4995325;28;20042;-52
2021/11/29 07:22:24;;;;;;;2.53;1.42;;;1.80;99.90;;;;;;4995448;28;20042;-53
2021/11/29 07:24:52;;;;;;;5.18;1.58;;;1.70;99.90;;;;;;5010771;28;20081;-53
2021/11/29 07:27:20;;;;;;;2.85;1.33;;;1.70;99.90;;;;;;4995290;28;20100;-52
2021/11/29 07:29:47;;;;;;;4.38;1.60;;;1.70;99.90;;;;;;4995107;28;20042;-51
2021/11/29 07:32:12;;;;;;;4.05;1.80;;;1.70;99.90;;;;;;4994224;28;20072;-52
2021/11/29 07:34:38;;;;;;;2.50;1.92;;;1.60;99.90;;;;;;4995000;28;20108;-48
2021/11/29 07:37:04;;;;;;;7.03;2.10;;;1.60;99.90;;;;;;4995277;28;20038;-51
2021/11/29 07:39:30;;;;;;;4.10;1.90;;;1.60;99.90;;;;;;4995184;28;20566;-52
2021/11/29 07:41:58;;;;;;;2.78;1.70;;;1.70;99.90;;;;;;4994380;28;20056;-51
2021/11/29 07:44:24;;;;;;;6.60;1.67;;;1.60;99.90;;;;;;4994736;28;20080;-52
2021/11/29 07:46:50;;;;;;;3.13;1.90;;;1.50;99.90;;;;;;4994790;28;20122;-51
2021/11/29 07:49:16;;;;;;;3.20;2.13;;;1.50;99.90;;;;;;4995020;28;20038;-50
2021/11/29 07:51:42;;;;;;;2.80;2.03;;;1.60;99.90;;;;;;4995113;28;20045;-51
2021/11/29 07:54:07;;;;;;;3.25;1.92;;;1.70;99.90;;;;;;4993415;28;20129;-51
2021/11/29 07:56:33;;;;;;;3.08;1.65;;;1.70;99.90;;;;;;4993798;28;20034;-50
2021/11/29 07:58:59;;;;;;;3.08;2.25;;;1.70;99.90;;;;;;4994717;28;20061;-50
2021/11/29 08:01:24;;;;;;;3.00;2.00;;;1.80;99.90;;;;;;4994417;28;20038;-50
2021/11/29 08:03:50;;;;;;;4.93;2.40;;;1.90;99.90;;;;;;4994500;28;20034;-51
2021/11/29 08:06:16;;;;;;;4.07;2.00;;;1.90;99.90;;;;;;4994754;28;20480;-52
2021/11/29 08:08:43;;;;;;;2.63;1.70;;;1.90;99.90;;;;;;4994654;28;20476;-52
2021/11/29 08:11:09;;;;;;;3.67;2.05;;;1.90;99.90;;;;;;4994651;28;20043;-51
2021/11/29 08:13:35;;;;;;;2.33;1.77;;;1.90;99.90;;;;;;4994769;28;20056;-53
2021/11/29 08:16:00;;;;;;;3.55;1.77;;;1.90;99.90;;;;;;4994194;28;20089;-53
2021/11/29 08:18:26;;;;;;;2.95;2.08;;;1.90;99.90;;;;;;4994187;28;20046;-52
2021/11/29 08:20:52;;;;;;;3.22;2.00;;;1.90;99.90;;;;;;4994484;28;20042;-49
2021/11/29 08:23:17;;;;;;;3.75;2.25;;;1.90;99.90;;;;;;4994303;28;20532;-52
2021/11/29 08:25:43;;;;;;;3.38;1.98;;;1.90;99.90;;;;;;4993866;28;20088;-53
2021/11/29 08:28:10;;;;;;;3.90;1.88;;;1.90;99.90;;;;;;4994080;28;20038;-52
2021/11/29 08:30:36;;;;;;;4.80;2.67;;;2.00;99.90;;;;;;4993991;28;20473;-52
2021/11/29 08:33:02;;;;;;;3.60;2.28;;;2.20;99.90;;;;;;4994062;28;20038;-49
2021/11/29 08:35:28;;;;;;;5.40;2.95;;;2.30;99.90;;;;;;4994294;28;20038;-53
2021/11/29 08:37:58;;;;;;;6.22;3.10;;;2.40;99.90;;;;;;4994144;28;20455;-52
2021/11/29 08:40:27;;;;;;;3.60;2.67;;;2.50;99.90;;;;;;4994098;28;20049;-51
2021/11/29 08:42:59;;;;;;;5.30;2.65;;;2.50;99.90;;;;;;4993892;28;20038;-49
2021/11/29 08:45:26;;;;;;;3.15;2.08;;;2.50;99.90;;;;;;4993787;28;20507;-52
2021/11/29 08:47:53;;;;;;;6.20;2.95;;;2.60;99.90;;;;;;4993789;28;20035;-51
2021/11/29 08:50:19;;;;;;;3.83;2.58;;;2.60;99.90;;;;;;4993715;28;20068;-51
2021/11/29 08:52:45;;;;;;;5.32;2.70;;;2.60;99.90;;;;;;4993480;28;20074;-52
2021/11/29 08:55:11;;;;;;;12.07;3.58;;;2.60;99.90;;;;;;4993747;28;20045;-51
2021/11/29 08:57:37;;;;;;;4.88;3.28;;;2.60;99.90;;;;;;4993471;28;20041;-51
2021/11/29 09:00:08;;;;;;;7.50;4.35;;;2.80;99.90;;;;;;4993656;28;20045;-51
2021/11/29 09:02:34;;;;;;;13.55;4.70;;;2.80;99.90;;;;;;4993377;28;20137;-52
2021/11/29 09:05:00;;;;;;;6.25;3.63;;;2.90;99.90;;;;;;4993663;28;20125;-51
2021/11/29 09:07:25;;;;;;;6.97;3.60;;;3.00;99.90;;;;;;4993396;28;20126;-53
2021/11/29 09:09:51;;;;;;;8.10;3.83;;;3.10;99.90;;;;;;4993288;28;20045;-50
2021/11/29 09:12:17;;;;;;;7.20;4.50;;;3.30;99.90;;;;;;4993208;28;20544;-51
2021/11/29 09:14:43;;;;;;;12.30;4.45;;;3.40;99.90;;;;;;4993535;28;20084;-51
2021/11/29 09:17:09;;;;;;;10.57;4.25;;;3.50;99.90;;;;;;4993389;28;20048;-53
2021/11/29 09:19:35;;;;;;;7.57;4.45;;;3.70;99.90;;;;;;4993148;28;20045;-51
2021/11/29 09:22:01;;;;;;;8.63;4.40;;;3.80;99.90;;;;;;4993363;28;20060;-52
2021/11/29 09:24:27;;;;;;;8.93;5.00;;;3.80;99.90;;;;;;4993344;28;20129;-51
2021/11/29 09:26:53;;;;;;;7.43;4.65;;;3.90;99.90;;;;;;4993090;28;20365;-53
2021/11/29 09:29:19;;;;;;;7.07;4.50;;;3.90;99.90;;;;;;4992877;28;20042;-52
2021/11/29 09:31:44;;;;;;;5.75;3.92;;;4.00;99.90;;;;;;4991983;28;20050;-52
2021/11/29 09:34:10;;;;;;;7.88;3.92;;;4.10;99.90;;;;;;4992827;28;20086;-51
2021/11/29 09:36:36;;;;;;;6.43;4.72;;;4.10;99.90;;;;;;4991827;28;20042;-53
2021/11/29 09:39:04;;;;;;;10.65;4.90;;;4.20;99.90;;;;;;4992936;28;20034;-54
2021/11/29 09:41:29;;;;;;;9.10;5.05;;;4.20;99.90;;;;;;4992842;28;20104;-53
2021/11/29 09:43:55;;;;;;;8.75;4.90;;;4.20;99.90;;;;;;4993049;28;20035;-52
2021/11/29 09:46:22;;;;;;;9.77;5.18;;;4.30;99.90;;;;;;4993032;28;20885;-51
2021/11/29 09:48:48;;;;;;;6.95;4.65;;;4.30;99.90;;;;;;4991655;28;20050;-53
2021/11/29 09:51:14;;;;;;;7.65;4.63;;;4.40;99.90;;;;;;4992802;28;20732;-51
2021/11/29 09:53:40;;;;;;;11.23;4.82;;;4.40;99.90;;;;;;4992805;28;20034;-52
2021/11/29 09:56:06;;;;;;;11.75;4.85;;;4.40;99.90;;;;;;4992801;28;20046;-52
2021/11/29 09:58:32;;;;;;;7.72;5.22;;;4.40;99.90;;;;;;4992981;28;20384;-52
2021/11/29 10:01:01;;;;;;;6.03;4.38;;;4.50;99.90;;;;;;4992888;28;20117;-51
2021/11/29 10:03:28;;;;;;;8.07;4.80;;;4.50;99.90;;;;;;5008072;28;20043;-51
2021/11/29 10:05:54;;;;;;;8.82;4.53;;;4.60;99.90;;;;;;4992868;28;20039;-51
2021/11/29 10:08:19;;;;;;;7.85;5.68;;;4.50;99.90;;;;;;4992640;28;20144;-53
2021/11/29 10:10:48;;;;;;;9.43;6.07;;;4.60;99.90;;;;;;4992608;28;20074;-51
2021/11/29 10:13:14;;;;;;;9.52;6.28;;;4.60;99.90;;;;;;4992793;28;20376;-51
2021/11/29 10:15:41;;;;;;;8.85;6.22;;;4.60;99.90;;;;;;4992750;28;20038;-50
2021/11/29 10:18:10;;;;;;;11.30;6.13;;;4.60;99.90;;;;;;4992731;28;20429;-51
2021/11/29 10:20:51;;;;;;;11.40;5.75;;;4.60;99.90;;;;;;4995012;28;20047;-51
2021/11/29 10:23:26;;;;;;;8.35;5.50;;;4.60;99.90;;;;;;4996402;28;20512;-52
2021/11/29 10:25:53;;;;;;;9.32;6.03;;;4.70;99.90;;;;;;4996241;28;20082;-51
2021/11/29 10:28:35;;;;;;;8.85;5.88;;;4.70;99.90;;;;;;4995290;28;20165;-51
2021/11/29 10:31:15;;;;;;;6.53;4.90;;;4.70;99.90;;;;;;4996188;28;20499;-51
2021/11/29 10:33:44;;;;;;;;;;;4.70;99.90;;;;;;4996578;28;20085;-51
2021/11/29 10:36:14;;;;;;;6.45;4.30;;;4.70;99.90;;;;;;4996315;28;20269;-51
2021/11/29 10:38:41;;;;;;;8.95;4.72;;;4.70;99.90;;;;;;4996083;28;20042;-51
2021/11/29 10:41:09;;;;;;;8.10;4.47;;;4.70;99.90;;;;;;4996058;28;20481;-49
2021/11/29 10:43:37;;;;;;;7.32;4.00;;;4.80;99.90;;;;;;4996172;28;20042;-52
2021/11/29 10:46:42;;;;;;;5.05;3.00;;;4.80;99.90;;;;;;4995875;28;20472;-52
2021/11/29 10:49:11;;;;;;;6.20;3.92;;;4.80;99.90;;;;;;4995933;28;20061;-51
2021/11/29 10:51:39;;;;;;;3.78;3.10;;;4.90;99.90;;;;;;4996176;28;20407;-51
2021/11/29 10:54:08;;;;;;;5.30;3.05;;;4.90;99.90;;;;;;4995885;28;20441;-51
2021/11/29 10:56:37;;;;;;;4.50;3.47;;;5.00;99.90;;;;;;4995852;28;20053;-52
2021/11/29 10:59:05;;;;;;;;;;;5.00;99.90;;;;;;4996384;28;20389;-51
2021/11/29 11:01:38;;;;;;;5.53;3.05;;;5.00;99.90;;;;;;4995849;28;20000;-50
2021/11/29 11:04:06;;;;;;;4.32;3.08;;;5.00;99.90;;;;;;4996042;28;20435;-52
2021/11/29 11:06:36;;;;;;;4.60;3.25;;;5.00;99.90;;;;;;4993706;28;20042;-52
2021/11/29 11:09:16;;;;;;;4.75;3.15;;;5.10;99.90;;;;;;4993610;28;20042;-52
2021/11/29 11:11:48;;;;;;;4.20;2.90;;;5.10;99.90;;;;;;4995521;28;20038;-52
2021/11/29 11:14:26;;;;;;;5.18;3.45;;;5.20;99.90;;;;;;4994292;28;20397;-50
2021/11/29 11:17:00;;;;;;;4.30;3.13;;;5.20;99.90;;;;;;4995610;28;20043;-51
2021/11/29 11:19:29;;;;;;;4.32;2.85;;;5.20;99.90;;;;;;5010489;28;20507;-50
2021/11/29 11:22:17;;;;;;;4.80;3.30;;;5.30;99.90;;;;;;4995455;28;20042;-51
2021/11/29 11:24:55;;;;;;;4.10;2.53;;;5.30;99.90;;;;;;4995718;28;20114;-51
2021/11/29 11:27:23;;;;;;;3.90;2.70;;;5.20;99.90;;;;;;4995238;28;20078;-51
2021/11/29 11:29:52;;;;;;;4.78;2.90;;;5.30;99.90;;;;;;4995214;28;20034;-51
2021/11/29 11:32:30;;;;;;;3.80;2.70;;;5.30;99.90;;;;;;4993907;28;20457;-51
2021/11/29 11:34:58;;;;;;;5.60;2.95;;;5.30;99.90;;;;;;4995209;28;20072;-51
2021/11/29 11:37:28;;;;;;;4.80;3.30;;;5.30;99.90;;;;;;4995174;28;20165;-50
2021/11/29 11:39:55;;;;;;;7.18;3.58;;;5.30;99.90;;;;;;4995151;28;20038;-49
2021/11/29 11:42:22;;;;;;;4.85;3.53;;;5.30;99.90;;;;;;4994931;28;20046;-51
2021/11/29 11:44:50;;;;;;;3.85;3.13;;;5.40;99.90;;;;;;4995088;28;20048;-50
2021/11/29 11:47:17;;;;;;;5.05;3.60;;;5.40;99.90;;;;;;4994725;28;20548;-52
2021/11/29 11:49:45;;;;;;;5.57;3.50;;;5.50;99.90;;;;;;4994833;28;20397;-51
2021/11/29 11:52:15;;;;;;;7.57;3.80;;;5.50;99.90;;;;;;4994813;28;20074;-51
2021/11/29 11:54:42;;;;;;;5.28;3.60;;;5.60;99.90;;;;;;4994801;28;20097;-52
2021/11/29 11:57:15;;;;;;;6.20;3.20;;;5.60;99.90;;;;;;4994598;28;20046;-51
2021/11/29 12:00:17;;;;;;;5.25;3.28;;;5.60;99.90;;;;;;4994911;28;20043;-52
2021/11/29 12:02:42;;;;;;;4.00;3.22;;;5.60;99.90;;;;;;4993550;28;20057;-52
2021/11/29 12:05:25;;;;;;;4.38;3.28;;;5.50;99.90;;;;;;4994598;28;20039;-52
2021/11/29 12:07:51;;;;;;;4.13;2.90;;;5.50;99.90;;;;;;4994685;28;20385;-50
2021/11/29 12:10:36;;;;;;;6.57;3.00;;;5.50;99.90;;;;;;4994708;28;20050;-52
2021/11/29 12:13:08;;;;;;;7.55;3.08;;;5.50;99.90;;;;;;4994740;28;20046;-51
2021/11/29 12:15:39;;;;;;;4.18;3.03;;;5.50;99.90;;;;;;4994568;28;20046;-52
2021/11/29 12:18:05;;;;;;;5.68;3.05;;;5.40;99.90;;;;;;4994183;28;20049;-52
2021/11/29 12:20:31;;;;;;;5.18;2.72;;;5.40;99.90;;;;;;4994653;28;20046;-51
2021/11/29 12:22:57;;;;;;;4.43;3.03;;;5.40;99.90;;;;;;4994443;28;20073;-52
2021/11/29 12:25:24;;;;;;;9.77;3.80;;;5.40;99.90;;;;;;4994277;28;20046;-51
2021/11/29 12:27:55;;;;;;;7.53;4.07;;;5.30;99.90;;;;;;4994200;28;20417;-50
2021/11/29 12:30:57;;;;;;;4.82;3.75;;;5.30;99.90;;;;;;4994091;28;20053;-51
2021/11/29 12:33:41;;;;;;;4.90;3.72;;;5.30;99.90;;;;;;4972357;28;20094;-51
2021/11/29 12:36:07;;;;;;;6.22;3.67;;;5.30;99.90;;;;;;4972695;28;20046;-52
2021/11/29 12:38:47;;;;;;;4.95;3.67;;;5.30;99.90;;;;;;4972401;28;20039;-53
2021/11/29 12:41:36;;;;;;;5.82;3.80;;;5.30;99.90;;;;;;4972234;28;20117;-49
2021/11/29 12:44:03;;;;;;;8.30;4.05;;;5.30;99.90;;;;;;4971952;28;20122;-51
2021/11/29 12:46:31;;;;;;;6.32;3.63;;;5.30;99.90;;;;;;4971716;28;20046;-52
2021/11/29 12:49:00;;;;;;;8.13;3.83;;;5.30;99.90;;;;;;4972106;28;20094;-50
2021/11/29 12:51:44;;;;;;;5.47;3.70;;;5.30;99.90;;;;;;4972166;28;20074;-52
2021/11/29 12:54:37;;;;;;;5.60;3.90;;;5.20;99.90;;;;;;4972087;28;20057;-52
2021/11/29 12:57:18;;;;;;;7.40;3.40;;;5.20;99.90;;;;;;4972186;28;20133;-52
2021/11/29 12:59:56;;;;;;;6.55;3.50;;;5.30;99.90;;;;;;4972089;28;20042;-51